Time;durP1;ratioP1;P1;durP2;ratioP2;P2;SDS_P1;SDS_P2;PMS_P1;PMS_P2;Temp;Humidity;BMP_temperature;BMP_pressure;BME280_temperature;BME280_humidity;BME280_pressure;Samples;Min_cycle;Max_cycle;Signal;HPM_P1;HPM_P2
2022/01/21 00:01:14;;;;;;;4.05;1.30;;;;;;;;;;4520712;28;20888;-71
2022/01/21 00:03:25;;;;;;;;;;;;;;;;;;4535641;28;20604;-71
2022/01/21 00:05:36;;;;;;;4.45;1.30;;;;;;;;;;4536089;28;19916;-71
2022/01/21 00:07:47;;;;;;;2.77;0.93;;;;;;;;;;4536500;28;20033;-72
2022/01/21 00:09:58;;;;;;;3.97;1.17;;;;;;;;;;4537611;28;20540;-72
2022/01/21 00:12:08;;;;;;;3.67;1.07;;;;;;;;;;4534210;28;20044;-72
2022/01/21 00:14:19;;;;;;;2.63;0.90;;;;;;;;;;4535266;28;20037;-72
2022/01/21 00:16:29;;;;;;;3.17;0.90;;;;;;;;;;4531221;28;39973;-72
2022/01/21 00:18:44;;;;;;;2.80;1.00;;;;;;;;;;4532849;28;20033;-72
2022/01/21 00:30:50;;;;;;;3.92;1.15;;;;;;;;;;4538540;28;20073;-71
2022/01/21 00:33:01;;;;;;;3.33;1.13;;;;;;;;;;4537650;28;20039;-71
2022/01/21 00:35:12;;;;;;;1.93;1.00;;;;;;;;;;4534440;28;20881;-71
2022/01/21 00:37:22;;;;;;;3.03;1.10;;;;;;;;;;4533305;28;20137;-71
2022/01/21 00:39:35;;;;;;;3.90;1.20;;;;;;;;;;4531428;28;20047;-72
2022/01/21 00:41:58;;;;;;;2.03;0.80;;;;;;;;;;4535232;28;20143;-72
2022/01/21 00:44:09;;;;;;;3.67;1.13;;;;;;;;;;4534408;28;20045;-71
2022/01/21 00:46:19;;;;;;;2.40;1.10;;;;;;;;;;4531399;28;20045;-72
2022/01/21 00:48:29;;;;;;;2.53;1.03;;;;;;;;;;4527466;28;20036;-71
2022/01/21 00:50:40;;;;;;;1.80;1.00;;;;;;;;;;4533401;28;20060;-71
2022/01/21 00:52:50;;;;;;;1.87;0.80;;;;;;;;;;4537952;28;20041;-72
2022/01/21 00:55:02;;;;;;;3.13;1.00;;;;;;;;;;4536507;28;20052;-72
2022/01/21 00:57:13;;;;;;;2.97;0.90;;;;;;;;;;4531249;28;20080;-71
2022/01/21 00:59:23;;;;;;;3.23;1.10;;;;;;;;;;4512723;28;20144;-71
2022/01/21 01:01:34;;;;;;;3.37;1.13;;;;;;;;;;4534550;28;20033;-72
2022/01/21 01:03:45;;;;;;;3.30;0.93;;;;;;;;;;4525363;28;20526;-71
2022/01/21 01:05:56;;;;;;;3.17;0.90;;;;;;;;;;4533905;28;27626;-72
2022/01/21 01:08:07;;;;;;;;;;;;;;;;;;4520767;28;20077;-71
2022/01/21 01:10:25;;;;;;;3.33;1.38;;;;;;;;;;4537201;28;20043;-71
2022/01/21 01:20:13;;;;;;;4.10;1.10;;;;;;;;;;4534835;28;20028;-71
2022/01/21 01:22:39;;;;;;;4.80;1.10;;;;;;;;;;4547153;28;20041;-72
2022/01/21 01:29:48;;;;;;;2.45;0.95;;;;;;;;;;4524103;28;20037;-72
2022/01/21 01:31:58;;;;;;;2.90;0.90;;;;;;;;;;4537782;28;20036;-71
2022/01/21 01:34:09;;;;;;;2.90;0.90;;;;;;;;;;4538856;28;20044;-71
2022/01/21 01:36:20;;;;;;;3.57;0.97;;;;;;;;;;4537760;28;20029;-72
2022/01/21 01:39:27;;;;;;;2.17;0.90;;;;;;;;;;4535500;28;20021;-72
2022/01/21 01:41:07;;;;;;;2.38;0.98;;;;;;;;;;4520569;28;20060;-71
2022/01/21 01:50:37;;;;;;;2.30;1.08;;;;;;;;;;4531479;28;20025;-72
2022/01/21 01:52:47;;;;;;;1.92;0.80;;;;;;;;;;4520974;28;20037;-71
2022/01/21 01:54:58;;;;;;;2.80;1.10;;;;;;;;;;4531353;28;20525;-71
2022/01/21 01:57:09;;;;;;;2.07;1.13;;;;;;;;;;4536540;28;20041;-72
2022/01/21 01:59:20;;;;;;;2.25;0.90;;;;;;;;;;4520403;28;20241;-71
2022/01/21 02:01:31;;;;;;;2.50;0.90;;;;;;;;;;4533050;28;20029;-71
2022/01/21 02:03:41;;;;;;;3.23;0.90;;;;;;;;;;4519393;28;20907;-71
2022/01/21 02:05:52;;;;;;;2.87;1.13;;;;;;;;;;4536629;28;20491;-71
2022/01/21 02:08:02;;;;;;;1.20;0.70;;;;;;;;;;4532138;28;20513;-71
2022/01/21 02:10:13;;;;;;;3.53;1.10;;;;;;;;;;4535947;28;20120;-71
2022/01/21 02:12:23;;;;;;;3.20;1.27;;;;;;;;;;4513708;28;20040;-71
2022/01/21 02:14:37;;;;;;;3.10;1.10;;;;;;;;;;4517737;28;20096;-72
2022/01/21 02:21:41;;;;;;;3.50;1.15;;;;;;;;;;4537610;28;20132;-72
2022/01/21 02:23:52;;;;;;;2.25;0.75;;;;;;;;;;4532007;28;20441;-71
2022/01/21 02:26:02;;;;;;;2.67;1.03;;;;;;;;;;4535624;28;20029;-72
2022/01/21 02:28:15;;;;;;;2.17;0.83;;;;;;;;;;4539922;28;20502;-73
2022/01/21 02:30:26;;;;;;;2.17;0.82;;;;;;;;;;4535488;28;20190;-73
2022/01/21 02:32:41;;;;;;;2.67;0.80;;;;;;;;;;4527637;28;20033;-73
2022/01/21 02:34:51;;;;;;;2.13;0.90;;;;;;;;;;4530724;28;45906;-72
2022/01/21 02:37:02;;;;;;;3.37;1.17;;;;;;;;;;4531106;28;20069;-71
2022/01/21 02:39:13;;;;;;;3.67;0.90;;;;;;;;;;4548307;28;20156;-72
2022/01/21 02:41:24;;;;;;;2.20;0.90;;;;;;;;;;4535763;28;20119;-72
2022/01/21 02:43:34;;;;;;;2.95;0.90;;;;;;;;;;4530010;28;20028;-72
2022/01/21 02:45:46;;;;;;;3.73;1.23;;;;;;;;;;4519268;28;20033;-72
2022/01/21 02:47:57;;;;;;;1.50;0.80;;;;;;;;;;4535051;28;20040;-72
2022/01/21 02:50:10;;;;;;;4.20;1.10;;;;;;;;;;4529523;28;20029;-71
2022/01/21 02:52:24;;;;;;;2.08;0.93;;;;;;;;;;4502414;28;20890;-73
2022/01/21 02:54:35;;;;;;;4.05;1.02;;;;;;;;;;4518778;28;20041;-73
2022/01/21 02:56:45;;;;;;;1.87;0.87;;;;;;;;;;4528899;28;20040;-73
2022/01/21 02:58:56;;;;;;;3.03;0.93;;;;;;;;;;4533239;28;20036;-73
2022/01/21 03:01:08;;;;;;;;;;;;;;;;;;4550510;28;20255;-72
2022/01/21 03:03:18;;;;;;;3.15;1.02;;;;;;;;;;4535750;28;19940;-73
2022/01/21 03:05:28;;;;;;;3.90;1.30;;;;;;;;;;4517044;28;20033;-72
2022/01/21 03:07:39;;;;;;;2.97;0.90;;;;;;;;;;4535967;28;20032;-72
2022/01/21 03:09:50;;;;;;;2.30;1.00;;;;;;;;;;4518489;28;20033;-72
2022/01/21 03:12:00;;;;;;;2.10;0.87;;;;;;;;;;4535256;28;20268;-72
2022/01/21 03:14:11;;;;;;;3.40;1.03;;;;;;;;;;4535559;28;20032;-71
2022/01/21 03:16:21;;;;;;;2.93;0.90;;;;;;;;;;4535270;28;20056;-71
2022/01/21 03:18:32;;;;;;;4.50;1.00;;;;;;;;;;4534042;28;20796;-71
2022/01/21 03:20:43;;;;;;;2.87;0.87;;;;;;;;;;4530104;28;20520;-71
2022/01/21 03:22:54;;;;;;;4.93;1.20;;;;;;;;;;4530543;28;20944;-71
2022/01/21 03:25:07;;;;;;;3.97;1.40;;;;;;;;;;4535214;28;20025;-72
2022/01/21 03:27:17;;;;;;;3.97;1.27;;;;;;;;;;4494084;28;20101;-72
2022/01/21 03:29:28;;;;;;;2.53;0.87;;;;;;;;;;4531584;28;20048;-72
2022/01/21 03:31:39;;;;;;;3.23;1.10;;;;;;;;;;4530030;28;20029;-71
2022/01/21 03:33:50;;;;;;;1.25;0.77;;;;;;;;;;4517716;28;20076;-71
2022/01/21 03:36:01;;;;;;;3.13;1.30;;;;;;;;;;4535605;28;20036;-71
2022/01/21 03:38:11;;;;;;;2.43;0.90;;;;;;;;;;4524537;28;20045;-71
2022/01/21 03:40:22;;;;;;;2.50;1.10;;;;;;;;;;4537330;28;20024;-71
2022/01/21 03:42:32;;;;;;;3.20;1.10;;;;;;;;;;4532192;28;20033;-72
2022/01/21 03:44:43;;;;;;;3.53;1.23;;;;;;;;;;4535905;28;20037;-71
2022/01/21 03:46:54;;;;;;;3.67;1.40;;;;;;;;;;4518740;28;20033;-71
2022/01/21 03:49:07;;;;;;;3.25;1.25;;;;;;;;;;4534726;28;20036;-72
2022/01/21 03:51:20;;;;;;;3.78;1.17;;;;;;;;;;4535630;28;20084;-71
2022/01/21 03:53:31;;;;;;;3.22;1.10;;;;;;;;;;4531275;28;20078;-71
2022/01/21 03:55:41;;;;;;;2.73;1.07;;;;;;;;;;4519453;28;20025;-71
2022/01/21 03:57:52;;;;;;;3.40;1.10;;;;;;;;;;4519715;28;20042;-72
2022/01/21 04:00:05;;;;;;;4.83;1.20;;;;;;;;;;4523216;28;20156;-71
2022/01/21 04:02:25;;;;;;;1.45;0.70;;;;;;;;;;4532117;28;20033;-72
2022/01/21 04:04:36;;;;;;;2.23;1.00;;;;;;;;;;4540325;28;20025;-71
2022/01/21 04:06:46;;;;;;;2.87;1.07;;;;;;;;;;4531680;28;20040;-70
2022/01/21 04:08:57;;;;;;;2.60;1.10;;;;;;;;;;4535431;28;20059;-71
2022/01/21 04:11:07;;;;;;;3.07;1.03;;;;;;;;;;4520252;28;20037;-71
2022/01/21 04:13:23;;;;;;;3.72;1.20;;;;;;;;;;4535600;28;20033;-70
2022/01/21 04:15:37;;;;;;;2.83;1.05;;;;;;;;;;4527946;28;20117;-71
2022/01/21 04:17:47;;;;;;;2.70;1.23;;;;;;;;;;4536001;28;20087;-70
2022/01/21 04:19:58;;;;;;;3.17;1.17;;;;;;;;;;4533018;28;20453;-70
2022/01/21 04:22:08;;;;;;;2.73;1.10;;;;;;;;;;4517695;28;20025;-71
2022/01/21 04:24:19;;;;;;;3.07;1.20;;;;;;;;;;4535281;28;20045;-70
2022/01/21 04:26:29;;;;;;;3.47;1.23;;;;;;;;;;4529346;28;20029;-71
2022/01/21 04:28:49;;;;;;;4.05;1.40;;;;;;;;;;4524883;28;20053;-71
2022/01/21 04:31:01;;;;;;;5.88;1.10;;;;;;;;;;4528445;28;20104;-71
2022/01/21 04:33:18;;;;;;;4.28;1.25;;;;;;;;;;4511115;28;20088;-71
2022/01/21 04:35:39;;;;;;;;;;;;;;;;;;4545334;28;20075;-71
2022/01/21 04:37:55;;;;;;;4.22;1.40;;;;;;;;;;4534601;28;19909;-72
2022/01/21 04:40:11;;;;;;;2.70;0.90;;;;;;;;;;4532626;28;20030;-72
2022/01/21 04:47:18;;;;;;;3.70;1.23;;;;;;;;;;4529169;28;20025;-71
2022/01/21 04:49:29;;;;;;;4.30;1.38;;;;;;;;;;4533184;28;20574;-71
2022/01/21 04:51:48;;;;;;;3.23;1.30;;;;;;;;;;4532084;28;20108;-71
2022/01/21 04:53:59;;;;;;;3.55;1.25;;;;;;;;;;4542532;28;20048;-71
2022/01/21 04:56:13;;;;;;;3.00;1.08;;;;;;;;;;4550215;28;20021;-72
2022/01/21 04:58:24;;;;;;;;;;;;;;;;;;4538030;28;20576;-70
2022/01/21 05:00:35;;;;;;;3.97;1.27;;;;;;;;;;4534960;28;19936;-71
2022/01/21 05:02:47;;;;;;;3.28;1.10;;;;;;;;;;4536461;28;20029;-71
2022/01/21 05:04:59;;;;;;;4.07;1.20;;;;;;;;;;4538093;28;20043;-71
2022/01/21 05:07:13;;;;;;;4.53;1.40;;;;;;;;;;4517982;28;20032;-71
2022/01/21 05:09:30;;;;;;;3.85;1.50;;;;;;;;;;4528596;28;20014;-70
2022/01/21 05:11:40;;;;;;;5.07;1.63;;;;;;;;;;4533572;28;20173;-71
2022/01/21 05:13:58;;;;;;;2.95;1.20;;;;;;;;;;4536405;28;20025;-70
2022/01/21 05:16:30;;;;;;;5.78;1.60;;;;;;;;;;4538504;28;20068;-70
2022/01/21 05:18:41;;;;;;;3.10;1.23;;;;;;;;;;4538088;28;20040;-71
2022/01/21 05:21:08;;;;;;;4.65;1.25;;;;;;;;;;4528184;28;20021;-71
2022/01/21 05:23:29;;;;;;;4.13;1.35;;;;;;;;;;4521139;28;20041;-70
2022/01/21 05:25:40;;;;;;;4.37;1.40;;;;;;;;;;4533389;28;20553;-70
2022/01/21 05:27:53;;;;;;;3.10;1.30;;;;;;;;;;4526149;28;20022;-71
2022/01/21 05:30:05;;;;;;;3.80;1.20;;;;;;;;;;4543593;28;20201;-70
2022/01/21 05:32:27;;;;;;;3.67;1.13;;;;;;;;;;4548979;28;20570;-70
2022/01/21 05:34:57;;;;;;;3.92;1.40;;;;;;;;;;4535625;28;20035;-71
2022/01/21 05:37:37;;;;;;;4.50;1.20;;;;;;;;;;4505397;28;20180;-70
2022/01/21 05:39:58;;;;;;;4.47;1.20;;;;;;;;;;4536012;28;20025;-72
2022/01/21 05:42:21;;;;;;;3.40;1.30;;;;;;;;;;4535046;28;20067;-71
2022/01/21 05:47:09;;;;;;;3.00;1.20;;;;;;;;;;4532503;28;20030;-71
2022/01/21 05:49:39;;;;;;;5.70;1.48;;;;;;;;;;4536147;28;20870;-71
2022/01/21 05:52:17;;;;;;;4.20;1.40;;;;;;;;;;4532388;28;20042;-71
2022/01/21 05:54:51;;;;;;;3.53;1.20;;;;;;;;;;4522775;28;20366;-71
2022/01/21 05:57:17;;;;;;;4.78;1.40;;;;;;;;;;4524582;28;20021;-71
2022/01/21 05:59:30;;;;;;;5.65;1.20;;;;;;;;;;4520301;28;20124;-72
2022/01/21 06:01:41;;;;;;;3.17;1.20;;;;;;;;;;4532686;28;20201;-70
2022/01/21 06:03:51;;;;;;;2.83;1.23;;;;;;;;;;4536016;28;20052;-70
2022/01/21 06:06:02;;;;;;;3.57;1.00;;;;;;;;;;4523146;28;20072;-70
2022/01/21 06:08:13;;;;;;;2.47;1.00;;;;;;;;;;4520121;28;20017;-70
2022/01/21 06:10:23;;;;;;;3.57;1.23;;;;;;;;;;4525352;28;20034;-71
2022/01/21 06:12:34;;;;;;;5.57;1.40;;;;;;;;;;4530913;28;20048;-71
2022/01/21 06:14:44;;;;;;;4.03;1.30;;;;;;;;;;4531296;28;20044;-71
2022/01/21 06:16:55;;;;;;;3.73;1.30;;;;;;;;;;4535966;28;20083;-70
2022/01/21 06:19:05;;;;;;;3.00;0.93;;;;;;;;;;4531055;28;20025;-70
2022/01/21 06:21:15;;;;;;;3.40;1.30;;;;;;;;;;4534125;28;20029;-70
2022/01/21 06:23:27;;;;;;;4.63;1.40;;;;;;;;;;4533576;28;20710;-70
2022/01/21 06:25:37;;;;;;;2.55;1.20;;;;;;;;;;4533264;28;20028;-71
2022/01/21 06:27:48;;;;;;;2.83;1.10;;;;;;;;;;4531799;28;20029;-70
2022/01/21 06:29:58;;;;;;;2.80;1.07;;;;;;;;;;4532901;28;20040;-71
2022/01/21 06:32:08;;;;;;;2.73;1.00;;;;;;;;;;4534069;28;20025;-70
2022/01/21 06:34:19;;;;;;;3.80;1.20;;;;;;;;;;4534099;28;20159;-70
2022/01/21 06:36:30;;;;;;;3.73;1.40;;;;;;;;;;4533707;28;20028;-70
2022/01/21 06:38:40;;;;;;;4.20;1.40;;;;;;;;;;4534524;28;20025;-71
2022/01/21 06:40:51;;;;;;;2.60;1.20;;;;;;;;;;4531063;28;29653;-70
2022/01/21 06:43:03;;;;;;;4.00;1.17;;;;;;;;;;4536443;28;20693;-70
2022/01/21 06:45:13;;;;;;;3.92;1.20;;;;;;;;;;4538135;28;20517;-72
2022/01/21 06:47:24;;;;;;;2.90;1.10;;;;;;;;;;4531196;28;20402;-70
2022/01/21 06:49:34;;;;;;;2.20;0.85;;;;;;;;;;4532625;28;20033;-71
2022/01/21 06:51:45;;;;;;;3.63;1.10;;;;;;;;;;4535506;28;20040;-71
2022/01/21 06:53:56;;;;;;;3.27;1.20;;;;;;;;;;4531103;28;20033;-70
2022/01/21 06:56:06;;;;;;;3.90;1.20;;;;;;;;;;4534004;28;20708;-72
2022/01/21 06:58:16;;;;;;;3.20;1.17;;;;;;;;;;4532931;28;20029;-71
2022/01/21 07:00:27;;;;;;;3.17;1.10;;;;;;;;;;4533623;28;22479;-71
2022/01/21 07:02:37;;;;;;;3.13;0.80;;;;;;;;;;4535084;28;36987;-70
2022/01/21 07:04:49;;;;;;;3.50;1.13;;;;;;;;;;4533591;28;20056;-71
2022/01/21 07:07:00;;;;;;;;;;;;;;;;;;4532296;28;21522;-72
2022/01/21 07:09:11;;;;;;;3.78;1.10;;;;;;;;;;4533052;28;19920;-70
2022/01/21 07:11:21;;;;;;;3.77;1.20;;;;;;;;;;4535380;28;20033;-70
2022/01/21 07:13:32;;;;;;;4.03;1.40;;;;;;;;;;4529511;28;20092;-72
2022/01/21 07:15:42;;;;;;;3.03;1.10;;;;;;;;;;4535520;28;20487;-70
2022/01/21 07:17:53;;;;;;;2.30;1.07;;;;;;;;;;4531946;28;20032;-70
2022/01/21 07:20:04;;;;;;;2.25;1.13;;;;;;;;;;4531800;28;20029;-70
2022/01/21 07:22:15;;;;;;;3.25;1.05;;;;;;;;;;4534416;28;20674;-70
2022/01/21 07:24:25;;;;;;;3.17;1.03;;;;;;;;;;4540903;28;20071;-70
2022/01/21 07:26:36;;;;;;;4.17;1.37;;;;;;;;;;4535620;28;21043;-70
2022/01/21 07:28:46;;;;;;;4.90;1.40;;;;;;;;;;4518231;28;20144;-71
2022/01/21 07:30:56;;;;;;;2.87;1.00;;;;;;;;;;4533155;28;32054;-71
2022/01/21 07:33:08;;;;;;;3.83;1.30;;;;;;;;;;4531231;28;20293;-70
2022/01/21 07:35:19;;;;;;;;;;;;;;;;;;4531212;28;20084;-69
2022/01/21 07:37:29;;;;;;;3.30;1.25;;;;;;;;;;4532965;28;19912;-70
2022/01/21 07:39:40;;;;;;;4.47;1.13;;;;;;;;;;4534291;28;20043;-70
2022/01/21 07:41:50;;;;;;;2.70;1.00;;;;;;;;;;4532188;28;20069;-71
2022/01/21 07:44:01;;;;;;;3.37;0.90;;;;;;;;;;4530163;28;20038;-69
2022/01/21 07:46:11;;;;;;;3.97;1.10;;;;;;;;;;4529912;28;20574;-70
2022/01/21 07:48:21;;;;;;;3.70;1.30;;;;;;;;;;4532385;28;20037;-70
2022/01/21 07:50:33;;;;;;;2.17;0.83;;;;;;;;;;4530729;28;27782;-70
2022/01/21 07:52:44;;;;;;;4.10;1.30;;;;;;;;;;4530069;28;20040;-70
2022/01/21 07:54:54;;;;;;;2.87;0.90;;;;;;;;;;4531199;28;20083;-70
2022/01/21 07:57:05;;;;;;;3.17;1.10;;;;;;;;;;4534918;28;20044;-71
2022/01/21 07:59:15;;;;;;;2.03;0.83;;;;;;;;;;4530942;28;20064;-70
2022/01/21 08:01:26;;;;;;;4.07;1.27;;;;;;;;;;4530597;28;20033;-70
2022/01/21 08:03:36;;;;;;;2.97;1.10;;;;;;;;;;4532783;28;20440;-71
2022/01/21 08:05:47;;;;;;;3.50;1.00;;;;;;;;;;4530297;28;20033;-70
2022/01/21 08:07:58;;;;;;;4.50;1.40;;;;;;;;;;4530052;28;21108;-70
2022/01/21 08:10:08;;;;;;;3.20;1.20;;;;;;;;;;4527337;28;20129;-70
2022/01/21 08:12:19;;;;;;;1.80;0.90;;;;;;;;;;4528256;28;20076;-70
2022/01/21 08:14:29;;;;;;;2.40;0.90;;;;;;;;;;4528758;28;20033;-70
2022/01/21 08:16:40;;;;;;;2.93;0.97;;;;;;;;;;4527942;28;20025;-71
2022/01/21 08:18:50;;;;;;;3.07;1.03;;;;;;;;;;4525952;28;32744;-71
2022/01/21 08:21:01;;;;;;;3.33;1.10;;;;;;;;;;4529096;28;20037;-71
2022/01/21 08:23:12;;;;;;;3.87;1.30;;;;;;;;;;4532555;28;20348;-70
2022/01/21 08:25:22;;;;;;;4.38;1.30;;;;;;;;;;4533346;28;23564;-70
2022/01/21 08:27:33;;;;;;;2.87;0.83;;;;;;;;;;4530644;28;21254;-71
2022/01/21 08:29:43;;;;;;;2.10;0.97;;;;;;;;;;4531928;28;20565;-71
2022/01/21 08:31:54;;;;;;;2.70;1.00;;;;;;;;;;4529834;28;20025;-70
2022/01/21 08:34:05;;;;;;;2.95;1.10;;;;;;;;;;4527059;28;20030;-71
2022/01/21 08:36:18;;;;;;;2.60;0.97;;;;;;;;;;4530775;28;20029;-71
2022/01/21 08:38:28;;;;;;;3.58;1.17;;;;;;;;;;4532771;28;20029;-70
2022/01/21 08:40:39;;;;;;;2.17;0.97;;;;;;;;;;4533014;28;20042;-71
2022/01/21 08:42:50;;;;;;;3.07;1.20;;;;;;;;;;4534359;28;20021;-71
2022/01/21 08:45:00;;;;;;;3.57;1.20;;;;;;;;;;4526132;28;20148;-71
2022/01/21 08:47:10;;;;;;;4.93;1.10;;;;;;;;;;4533269;28;20077;-74
2022/01/21 08:49:21;;;;;;;1.40;0.70;;;;;;;;;;4529271;28;20029;-74
2022/01/21 08:51:39;;;;;;;3.47;1.00;;;;;;;;;;4532076;28;20565;-75
2022/01/21 08:53:49;;;;;;;2.95;1.15;;;;;;;;;;4534187;28;20025;-74
2022/01/21 08:56:00;;;;;;;1.60;0.90;;;;;;;;;;4532345;28;20033;-72
2022/01/21 08:58:11;;;;;;;0.80;0.60;;;;;;;;;;4515408;28;21021;-71
2022/01/21 09:00:21;;;;;;;2.70;0.83;;;;;;;;;;4536559;28;20066;-72
2022/01/21 09:02:32;;;;;;;2.30;0.83;;;;;;;;;;4534927;28;20029;-72
2022/01/21 09:04:42;;;;;;;2.33;0.70;;;;;;;;;;4529508;28;20284;-71
2022/01/21 09:06:53;;;;;;;4.23;1.20;;;;;;;;;;4534345;28;20046;-72
2022/01/21 09:09:04;;;;;;;3.23;1.00;;;;;;;;;;4533881;28;20032;-72
2022/01/21 09:11:14;;;;;;;1.90;0.75;;;;;;;;;;4537911;28;21011;-72
2022/01/21 09:13:28;;;;;;;1.70;0.80;;;;;;;;;;4534474;28;20056;-72
2022/01/21 09:15:38;;;;;;;3.47;0.98;;;;;;;;;;4520081;28;20156;-69
2022/01/21 09:17:49;;;;;;;2.53;0.90;;;;;;;;;;4533127;28;20086;-71
2022/01/21 09:19:59;;;;;;;2.40;1.00;;;;;;;;;;4534376;28;20033;-67
2022/01/21 09:22:10;;;;;;;2.43;0.90;;;;;;;;;;4536094;28;20021;-69
2022/01/21 09:24:20;;;;;;;2.03;0.80;;;;;;;;;;4532777;28;20592;-68
2022/01/21 09:26:31;;;;;;;2.00;0.80;;;;;;;;;;4532700;28;20019;-71
2022/01/21 09:28:42;;;;;;;2.83;0.93;;;;;;;;;;4518596;28;20064;-72
2022/01/21 09:30:52;;;;;;;3.10;0.93;;;;;;;;;;4530478;28;20043;-72
2022/01/21 09:33:03;;;;;;;2.40;0.93;;;;;;;;;;4529644;28;20045;-71
2022/01/21 09:35:13;;;;;;;2.43;0.97;;;;;;;;;;4532259;28;20025;-69
2022/01/21 09:37:24;;;;;;;2.70;0.83;;;;;;;;;;4532557;28;20463;-73
2022/01/21 09:39:34;;;;;;;1.60;0.80;;;;;;;;;;4535706;28;28392;-71
2022/01/21 09:41:45;;;;;;;3.43;1.00;;;;;;;;;;4533793;28;20487;-70
2022/01/21 09:43:57;;;;;;;3.13;1.08;;;;;;;;;;4535441;28;21264;-69
2022/01/21 09:46:08;;;;;;;;;;;;;;;;;;4535332;28;20036;-69
2022/01/21 09:48:26;;;;;;;2.90;0.80;;;;;;;;;;4535622;28;19917;-70
2022/01/21 09:50:37;;;;;;;3.08;0.95;;;;;;;;;;4536419;28;20194;-70
2022/01/21 09:52:49;;;;;;;2.47;0.90;;;;;;;;;;4533847;28;20080;-69
2022/01/21 09:55:00;;;;;;;2.92;1.00;;;;;;;;;;4534251;28;20621;-70
2022/01/21 09:57:11;;;;;;;1.60;0.70;;;;;;;;;;4531447;28;27894;-70
2022/01/21 09:59:24;;;;;;;2.20;0.83;;;;;;;;;;4532041;28;20033;-70
2022/01/21 10:01:35;;;;;;;2.28;0.70;;;;;;;;;;4533707;28;20040;-69
2022/01/21 10:03:48;;;;;;;1.35;0.70;;;;;;;;;;4526396;28;20053;-69
2022/01/21 10:05:58;;;;;;;3.47;1.02;;;;;;;;;;4534691;28;20098;-70
2022/01/21 10:08:09;;;;;;;3.03;0.88;;;;;;;;;;4535371;28;20095;-70
2022/01/21 10:10:19;;;;;;;2.87;1.00;;;;;;;;;;4533995;28;20041;-69
2022/01/21 10:12:30;;;;;;;3.40;0.87;;;;;;;;;;4537756;28;20041;-69
2022/01/21 10:14:41;;;;;;;3.17;0.80;;;;;;;;;;4533053;28;20042;-69
2022/01/21 10:16:53;;;;;;;2.63;0.90;;;;;;;;;;4538627;28;20702;-69
2022/01/21 10:19:05;;;;;;;1.88;0.65;;;;;;;;;;4533903;28;20045;-69
2022/01/21 10:21:16;;;;;;;1.85;0.82;;;;;;;;;;4533579;28;20040;-69
2022/01/21 10:23:28;;;;;;;2.67;1.00;;;;;;;;;;4536065;28;20052;-69
2022/01/21 10:25:40;;;;;;;2.50;0.90;;;;;;;;;;4533003;28;20043;-69
2022/01/21 10:27:50;;;;;;;3.03;0.70;;;;;;;;;;4534769;28;20039;-69
2022/01/21 10:30:22;;;;;;;1.97;0.80;;;;;;;;;;4531903;28;20117;-69
2022/01/21 10:32:34;;;;;;;3.47;0.88;;;;;;;;;;4531262;28;20056;-69
2022/01/21 10:34:45;;;;;;;2.85;0.90;;;;;;;;;;4533435;28;20026;-69
2022/01/21 10:37:06;;;;;;;2.10;0.68;;;;;;;;;;4533186;28;20508;-69
2022/01/21 10:39:29;;;;;;;3.28;1.02;;;;;;;;;;4519178;28;20041;-69
2022/01/21 10:41:41;;;;;;;1.65;0.85;;;;;;;;;;4531133;28;20033;-69
2022/01/21 10:44:07;;;;;;;1.77;0.70;;;;;;;;;;4531011;28;20089;-68
2022/01/21 10:46:18;;;;;;;2.45;0.88;;;;;;;;;;4532006;28;20037;-70
2022/01/21 10:48:53;;;;;;;2.30;0.90;;;;;;;;;;4530374;28;20088;-69
2022/01/21 10:51:23;;;;;;;2.03;0.70;;;;;;;;;;4529269;28;20222;-70
2022/01/21 10:53:33;;;;;;;1.95;0.68;;;;;;;;;;4530723;28;20128;-69
2022/01/21 10:55:43;;;;;;;3.67;0.80;;;;;;;;;;4530266;28;20031;-69
2022/01/21 10:58:13;;;;;;;2.20;0.80;;;;;;;;;;4532990;28;20048;-69
2022/01/21 11:00:23;;;;;;;2.72;0.80;;;;;;;;;;4531964;28;20103;-69
2022/01/21 11:02:40;;;;;;;3.80;0.90;;;;;;;;;;4533970;28;20087;-69
2022/01/21 11:04:51;;;;;;;2.05;0.80;;;;;;;;;;4531073;28;20064;-69
2022/01/21 11:07:02;;;;;;;2.53;0.85;;;;;;;;;;4532133;28;20172;-69
2022/01/21 11:09:15;;;;;;;2.40;1.00;;;;;;;;;;4532762;28;20046;-69
2022/01/21 11:11:25;;;;;;;2.45;0.90;;;;;;;;;;4531894;28;20030;-69
2022/01/21 11:13:40;;;;;;;3.47;0.97;;;;;;;;;;4531899;28;20547;-69
2022/01/21 11:15:58;;;;;;;2.53;1.00;;;;;;;;;;4532304;28;20108;-70
2022/01/21 11:18:13;;;;;;;2.38;0.85;;;;;;;;;;4534967;28;20130;-70
2022/01/21 11:20:31;;;;;;;2.40;0.82;;;;;;;;;;4535229;28;20052;-69
2022/01/21 11:22:56;;;;;;;2.47;0.75;;;;;;;;;;4532173;28;20044;-70
2022/01/21 11:25:07;;;;;;;1.83;0.85;;;;;;;;;;4531861;28;20975;-70
2022/01/21 11:27:17;;;;;;;1.67;0.80;;;;;;;;;;4533251;28;20032;-69
2022/01/21 11:29:28;;;;;;;2.43;0.90;;;;;;;;;;4531319;28;21355;-69
2022/01/21 11:31:38;;;;;;;2.20;0.77;;;;;;;;;;4531742;28;35873;-69
2022/01/21 11:33:49;;;;;;;2.43;0.90;;;;;;;;;;4548225;28;20033;-70
2022/01/21 11:36:00;;;;;;;3.30;0.90;;;;;;;;;;4532908;28;20041;-70
2022/01/21 11:38:12;;;;;;;2.10;0.77;;;;;;;;;;4537028;28;20696;-69
2022/01/21 11:40:23;;;;;;;2.72;0.95;;;;;;;;;;4532426;28;20041;-70
2022/01/21 11:42:38;;;;;;;2.03;0.88;;;;;;;;;;4533180;28;20029;-70
2022/01/21 11:45:02;;;;;;;2.80;1.00;;;;;;;;;;4532237;28;20054;-69
2022/01/21 11:49:25;;;;;;;4.17;1.13;;;;;;;;;;4532604;28;20046;-69
2022/01/21 11:51:39;;;;;;;3.22;1.00;;;;;;;;;;4533458;28;21397;-69
2022/01/21 11:53:53;;;;;;;1.85;0.70;;;;;;;;;;4532823;28;20124;-68
2022/01/21 11:56:32;;;;;;;2.28;0.75;;;;;;;;;;4523400;28;20033;-67
2022/01/21 11:59:02;;;;;;;2.78;0.90;;;;;;;;;;4535263;28;20586;-69
2022/01/21 12:01:31;;;;;;;4.93;1.20;;;;;;;;;;4529699;28;20945;-69
2022/01/21 12:03:53;;;;;;;2.13;0.82;;;;;;;;;;4519937;28;20055;-69
2022/01/21 12:06:30;;;;;;;2.05;0.82;;;;;;;;;;4534971;28;20149;-68
2022/01/21 12:08:46;;;;;;;2.40;0.90;;;;;;;;;;4537469;28;20037;-68
2022/01/21 12:10:56;;;;;;;2.13;0.80;;;;;;;;;;4537840;28;20676;-68
2022/01/21 12:13:11;;;;;;;3.27;1.00;;;;;;;;;;4537824;28;20055;-69
2022/01/21 12:15:25;;;;;;;1.75;0.75;;;;;;;;;;4517863;28;20037;-68
2022/01/21 12:17:50;;;;;;;3.28;0.95;;;;;;;;;;4535553;28;20652;-68
2022/01/21 12:20:08;;;;;;;2.80;0.90;;;;;;;;;;4537557;28;20044;-68
2022/01/21 12:22:18;;;;;;;2.78;0.93;;;;;;;;;;4537894;28;20021;-70
2022/01/21 12:25:03;;;;;;;3.10;0.80;;;;;;;;;;4533540;28;20529;-70
2022/01/21 12:27:13;;;;;;;2.50;0.90;;;;;;;;;;4538524;28;20259;-71
2022/01/21 12:29:26;;;;;;;4.07;2.40;;;;;;;;;;4523897;28;20029;-71
2022/01/21 12:31:45;;;;;;;1.73;0.90;;;;;;;;;;4521003;28;20751;-70
2022/01/21 12:34:10;;;;;;;3.55;1.08;;;;;;;;;;4533226;28;20044;-70
2022/01/21 12:36:25;;;;;;;2.72;0.90;;;;;;;;;;4533789;28;20021;-70
2022/01/21 12:40:46;;;;;;;4.57;1.10;;;;;;;;;;4535287;28;20124;-70
2022/01/21 12:42:56;;;;;;;2.63;1.03;;;;;;;;;;4538564;28;28527;-69
2022/01/21 12:45:07;;;;;;;2.97;0.80;;;;;;;;;;4534086;28;20037;-70
2022/01/21 12:47:32;;;;;;;2.10;0.97;;;;;;;;;;4535870;28;20041;-70
2022/01/21 12:49:51;;;;;;;3.50;1.00;;;;;;;;;;4526847;28;20049;-70
2022/01/21 12:52:42;;;;;;;3.08;1.02;;;;;;;;;;4535342;28;20029;-70
2022/01/21 12:57:22;;;;;;;3.03;1.00;;;;;;;;;;4533271;28;20033;-71
2022/01/21 12:59:32;;;;;;;4.17;0.90;;;;;;;;;;4535636;28;37929;-71
2022/01/21 13:01:43;;;;;;;3.00;0.87;;;;;;;;;;4534826;28;22516;-70
2022/01/21 13:03:57;;;;;;;4.28;1.15;;;;;;;;;;4533971;28;20045;-71
2022/01/21 13:06:31;;;;;;;2.95;1.10;;;;;;;;;;4534306;28;20033;-68
2022/01/21 13:08:51;;;;;;;2.50;0.93;;;;;;;;;;4536301;28;20084;-68
2022/01/21 13:11:18;;;;;;;4.25;1.08;;;;;;;;;;4533849;28;20037;-68
2022/01/21 13:13:48;;;;;;;3.45;1.17;;;;;;;;;;4539021;28;20129;-69
2022/01/21 13:15:59;;;;;;;4.45;1.15;;;;;;;;;;4533468;28;20636;-69
2022/01/21 13:18:28;;;;;;;2.65;1.00;;;;;;;;;;4535486;28;20040;-71
2022/01/21 13:20:42;;;;;;;2.05;0.85;;;;;;;;;;4537359;28;20091;-67
2022/01/21 13:22:52;;;;;;;2.65;1.00;;;;;;;;;;4532975;28;20045;-67
2022/01/21 13:25:09;;;;;;;4.33;1.10;;;;;;;;;;4534692;28;20049;-66
2022/01/21 13:27:19;;;;;;;2.42;0.90;;;;;;;;;;4538099;28;20174;-67
2022/01/21 13:29:34;;;;;;;3.77;1.30;;;;;;;;;;4534140;28;20087;-67
2022/01/21 13:31:51;;;;;;;3.50;1.00;;;;;;;;;;4535440;28;20114;-67
2022/01/21 13:34:12;;;;;;;2.92;1.05;;;;;;;;;;4534113;28;20041;-67
2022/01/21 13:37:02;;;;;;;3.80;1.00;;;;;;;;;;4536452;28;20033;-67
2022/01/21 13:39:16;;;;;;;2.38;0.85;;;;;;;;;;4466757;28;20078;-67
2022/01/21 13:41:27;;;;;;;2.63;0.93;;;;;;;;;;4500907;28;20131;-68
2022/01/21 13:43:37;;;;;;;3.33;1.00;;;;;;;;;;4517974;28;20033;-67
2022/01/21 13:46:03;;;;;;;3.63;1.00;;;;;;;;;;4512760;28;20411;-67
2022/01/21 13:48:15;;;;;;;4.22;1.45;;;;;;;;;;4519343;28;20099;-67
2022/01/21 13:50:26;;;;;;;4.63;1.60;;;;;;;;;;4504868;28;20060;-67
2022/01/21 13:52:38;;;;;;;5.10;1.30;;;;;;;;;;4532903;28;20045;-67
2022/01/21 13:54:50;;;;;;;4.15;1.10;;;;;;;;;;4536928;28;20679;-67
2022/01/21 13:57:02;;;;;;;3.70;1.00;;;;;;;;;;4536361;28;20091;-68
2022/01/21 13:59:12;;;;;;;3.72;1.15;;;;;;;;;;4535181;28;20654;-67
2022/01/21 14:01:26;;;;;;;3.73;1.37;;;;;;;;;;4534431;28;36067;-67
2022/01/21 14:03:38;;;;;;;2.90;1.23;;;;;;;;;;4537833;28;20052;-67
2022/01/21 14:05:58;;;;;;;3.22;1.10;;;;;;;;;;4531648;28;20084;-67
2022/01/21 14:08:10;;;;;;;2.33;1.00;;;;;;;;;;4538101;28;20122;-67
2022/01/21 14:10:30;;;;;;;3.75;1.20;;;;;;;;;;4537581;28;20033;-67
2022/01/21 14:12:40;;;;;;;5.13;1.25;;;;;;;;;;4524732;28;20669;-68